Time;durP1;ratioP1;P1;durP2;ratioP2;P2;SDS_P1;SDS_P2;PMS_P1;PMS_P2;Temp;Humidity;BMP_temperature;BMP_pressure;BME280_temperature;BME280_humidity;BME280_pressure;Samples;Min_cycle;Max_cycle;Signal;HPM_P1;HPM_P2
2023/08/25 00:00:57;;;;;;;1.00;1.00;;;;;20.00;95780.00;;;;5134327;27;20648;-60
2023/08/25 00:03:24;;;;;;;0.83;0.83;;;;;20.00;95780.00;;;;5134534;27;20185;-61
2023/08/25 00:05:54;;;;;;;0.80;0.80;;;;;19.90;95782.00;;;;5134042;27;20201;-61
2023/08/25 00:08:22;;;;;;;0.60;0.60;;;;;19.80;95788.00;;;;5133386;27;20590;-60
2023/08/25 00:10:50;;;;;;;0.87;0.87;;;;;19.90;95782.00;;;;5134154;27;20193;-59
2023/08/25 00:13:17;;;;;;;0.57;0.57;;;;;19.80;95797.00;;;;5134537;27;20209;-59
2023/08/25 00:15:45;;;;;;;1.00;1.00;;;;;19.80;95791.00;;;;5133919;27;20202;-59
2023/08/25 00:18:12;;;;;;;0.80;0.80;;;;;19.90;95793.00;;;;5133989;27;20576;-60
2023/08/25 00:20:41;;;;;;;0.77;0.77;;;;;20.00;95787.00;;;;5133986;27;20660;-60
2023/08/25 00:23:10;;;;;;;2.03;0.90;;;;;20.00;95787.00;;;;5134151;27;20197;-60
2023/08/25 00:25:37;;;;;;;0.80;0.57;;;;;19.90;95786.00;;;;5133959;27;20192;-60
2023/08/25 00:28:05;;;;;;;0.83;0.83;;;;;19.90;95767.00;;;;5132550;27;20201;-60
2023/08/25 00:30:32;;;;;;;1.17;1.07;;;;;19.90;95760.00;;;;5134233;27;20208;-60
2023/08/25 00:33:00;;;;;;;0.80;0.80;;;;;19.70;95763.00;;;;5133772;28;20213;-60
2023/08/25 00:35:28;;;;;;;1.63;1.53;;;;;19.50;95749.00;;;;5133805;28;20288;-60
2023/08/25 00:37:55;;;;;;;14.10;1.00;;;;;19.70;95751.00;;;;5133704;28;20209;-60
2023/08/25 00:40:24;;;;;;;0.70;0.70;;;;;19.70;95745.00;;;;5133888;28;20189;-60
2023/08/25 00:42:51;;;;;;;0.70;0.70;;;;;19.80;95746.00;;;;5133950;28;20185;-61
2023/08/25 00:45:18;;;;;;;0.67;0.67;;;;;19.70;95744.00;;;;5134054;28;20648;-61
2023/08/25 00:47:46;;;;;;;0.93;0.93;;;;;19.70;95746.00;;;;5133671;28;20209;-61
2023/08/25 00:50:13;;;;;;;0.67;0.67;;;;;19.70;95740.00;;;;5133661;28;20660;-61
2023/08/25 00:52:42;;;;;;;1.57;1.20;;;;;19.70;95735.00;;;;5133594;28;20259;-61
2023/08/25 00:55:10;;;;;;;1.20;1.20;;;;;19.80;95729.00;;;;5133557;28;20306;-61
2023/08/25 00:57:39;;;;;;;0.97;0.97;;;;;19.80;95735.00;;;;5133591;28;20201;-61
2023/08/25 01:00:11;;;;;;;0.67;0.67;;;;;19.60;95727.00;;;;5133945;28;20262;-61
2023/08/25 01:02:38;;;;;;;0.70;0.70;;;;;19.70;95729.00;;;;5133965;28;20188;-61
2023/08/25 01:05:07;;;;;;;0.73;0.73;;;;;19.70;95734.00;;;;5133475;28;20197;-61
2023/08/25 01:07:35;;;;;;;0.93;0.93;;;;;19.70;95729.00;;;;5133466;28;20261;-60
2023/08/25 01:10:03;;;;;;;1.23;1.17;;;;;19.80;95734.00;;;;5133566;28;20193;-60
2023/08/25 01:12:41;;;;;;;0.80;0.80;;;;;19.80;95733.00;;;;5133419;28;20221;-61
2023/08/25 01:15:16;;;;;;;0.77;0.77;;;;;19.70;95734.00;;;;5134032;28;20181;-61
2023/08/25 01:17:53;;;;;;;0.53;0.53;;;;;19.80;95740.00;;;;5133450;28;20222;-61
2023/08/25 01:20:22;;;;;;;1.33;1.27;;;;;19.80;95745.00;;;;5136932;27;20173;-60
2023/08/25 01:23:01;;;;;;;0.93;0.93;;;;;19.90;95742.00;;;;5137568;27;20189;-60
2023/08/25 01:25:31;;;;;;;0.53;0.53;;;;;19.90;95736.00;;;;5137277;27;20635;-60
2023/08/25 01:28:00;;;;;;;0.80;0.80;;;;;19.80;95737.00;;;;5137347;27;20218;-60
2023/08/25 01:30:30;;;;;;;0.83;0.83;;;;;19.80;95734.00;;;;5137647;27;20203;-60
2023/08/25 01:32:58;;;;;;;1.17;1.07;;;;;19.90;95745.00;;;;5137053;27;20213;-60
2023/08/25 01:35:36;;;;;;;1.13;0.80;;;;;19.80;95740.00;;;;5137372;27;20289;-60
2023/08/25 01:38:09;;;;;;;0.60;0.60;;;;;19.80;95745.00;;;;5137192;27;20178;-60
2023/08/25 01:40:42;;;;;;;0.80;0.80;;;;;19.90;95737.00;;;;5137310;27;20262;-60
2023/08/25 01:43:11;;;;;;;0.70;0.70;;;;;19.70;95743.00;;;;5137016;27;20170;-60
2023/08/25 01:45:40;;;;;;;1.17;1.07;;;;;19.60;95751.00;;;;5136741;27;20593;-60
2023/08/25 01:48:09;;;;;;;1.20;1.00;;;;;19.50;95742.00;;;;5136819;27;20665;-60
2023/08/25 01:50:37;;;;;;;0.80;0.80;;;;;19.50;95745.00;;;;5136911;27;20209;-60
2023/08/25 01:53:05;;;;;;;0.83;0.83;;;;;19.40;95739.00;;;;5136779;27;20209;-60
2023/08/25 01:55:32;;;;;;;1.30;1.20;;;;;19.60;95746.00;;;;5136727;27;20185;-61
2023/08/25 01:58:02;;;;;;;0.80;0.80;;;;;19.40;95743.00;;;;5136579;27;20209;-60
2023/08/25 02:00:30;;;;;;;1.00;1.00;;;;;19.40;95741.00;;;;5137044;27;20193;-59
2023/08/25 02:02:57;;;;;;;0.87;0.87;;;;;19.60;95739.00;;;;5136765;27;20189;-60
2023/08/25 02:05:24;;;;;;;0.43;0.43;;;;;19.40;95737.00;;;;5136484;27;20628;-60
2023/08/25 02:07:52;;;;;;;0.80;0.80;;;;;19.40;95738.00;;;;5136544;27;20228;-60
2023/08/25 02:10:19;;;;;;;0.70;0.70;;;;;19.40;95746.00;;;;5136409;27;20190;-60
2023/08/25 02:12:46;;;;;;;0.47;0.47;;;;;19.30;95731.00;;;;5136383;27;20542;-59
2023/08/25 02:15:15;;;;;;;0.57;0.57;;;;;19.30;95734.00;;;;5136525;27;20648;-59
2023/08/25 02:17:43;;;;;;;0.60;0.60;;;;;19.30;95733.00;;;;5136380;27;20215;-59
2023/08/25 02:20:12;;;;;;;0.67;0.67;;;;;19.40;95737.00;;;;5136237;27;20196;-59
2023/08/25 02:22:40;;;;;;;0.57;0.57;;;;;19.40;95735.00;;;;5136088;27;20595;-59
2023/08/25 02:25:08;;;;;;;0.97;0.80;;;;;19.40;95736.00;;;;5136316;27;20208;-60
2023/08/25 02:27:35;;;;;;;0.70;0.70;;;;;19.40;95736.00;;;;5136033;27;20718;-60
2023/08/25 02:30:03;;;;;;;0.97;0.97;;;;;19.40;95729.00;;;;5135633;27;20190;-61
2023/08/25 02:32:31;;;;;;;1.00;1.00;;;;;19.50;95729.00;;;;5135787;27;20205;-60
2023/08/25 02:34:59;;;;;;;1.23;1.10;;;;;19.50;95728.00;;;;5135943;27;20215;-60
2023/08/25 02:37:26;;;;;;;0.97;0.97;;;;;19.30;95721.00;;;;5135916;27;20213;-60
2023/08/25 02:39:53;;;;;;;0.93;0.93;;;;;19.40;95716.00;;;;5135783;27;20186;-60
2023/08/25 02:42:21;;;;;;;5.90;1.07;;;;;19.30;95708.00;;;;5136097;27;20612;-60
2023/08/25 02:44:48;;;;;;;0.60;0.60;;;;;19.40;95707.00;;;;5136199;27;20652;-60
2023/08/25 02:47:15;;;;;;;1.07;1.07;;;;;19.40;95707.00;;;;5134230;27;20213;-60
2023/08/25 02:49:44;;;;;;;0.60;0.60;;;;;19.20;95704.00;;;;5135701;27;20186;-60
2023/08/25 02:52:11;;;;;;;2.13;1.47;;;;;19.00;95708.00;;;;5135729;27;20193;-60
2023/08/25 02:54:39;;;;;;;0.97;0.97;;;;;18.90;95706.00;;;;5135429;27;20189;-60
2023/08/25 02:57:06;;;;;;;2.67;1.30;;;;;18.70;95701.00;;;;5135615;27;20236;-59
2023/08/25 02:59:34;;;;;;;0.70;0.70;;;;;18.80;95705.00;;;;5135564;27;20197;-59
2023/08/25 03:02:01;;;;;;;0.87;0.87;;;;;19.00;95706.00;;;;5135232;27;20185;-60
2023/08/25 03:04:28;;;;;;;1.10;1.10;;;;;19.00;95701.00;;;;5135142;27;20613;-60
2023/08/25 03:06:57;;;;;;;0.60;0.60;;;;;19.10;95695.00;;;;5135317;27;20718;-60
2023/08/25 03:09:24;;;;;;;9.37;1.63;;;;;19.10;95684.00;;;;5133905;27;20193;-60
2023/08/25 03:11:52;;;;;;;7.80;1.17;;;;;19.00;95681.00;;;;5135256;27;20193;-61
2023/08/25 03:14:19;;;;;;;1.07;0.83;;;;;18.80;95684.00;;;;5135167;27;20209;-60
2023/08/25 03:16:46;;;;;;;0.50;0.50;;;;;18.80;95675.00;;;;5134851;27;20696;-60
2023/08/25 03:19:13;;;;;;;0.80;0.80;;;;;18.80;95673.00;;;;5134971;27;20186;-60
2023/08/25 03:21:41;;;;;;;0.50;0.50;;;;;18.80;95671.00;;;;5135071;27;20619;-60
2023/08/25 03:24:10;;;;;;;0.60;0.60;;;;;18.80;95672.00;;;;5135007;27;20185;-60
2023/08/25 03:26:38;;;;;;;0.87;0.87;;;;;18.80;95665.00;;;;5134839;27;20554;-60
2023/08/25 03:29:05;;;;;;;0.60;0.60;;;;;18.80;95662.00;;;;5134970;27;20189;-61
2023/08/25 03:31:32;;;;;;;1.30;1.20;;;;;18.80;95664.00;;;;5134799;27;20274;-61
2023/08/25 03:34:00;;;;;;;0.90;0.90;;;;;18.90;95666.00;;;;5133555;27;20688;-61
2023/08/25 03:36:27;;;;;;;0.60;0.60;;;;;18.90;95657.00;;;;5134851;27;20570;-60
2023/08/25 03:38:54;;;;;;;0.80;0.80;;;;;19.00;95649.00;;;;5135033;27;20193;-60
2023/08/25 03:41:23;;;;;;;0.70;0.70;;;;;19.00;95653.00;;;;5134432;27;20197;-60
2023/08/25 03:43:50;;;;;;;1.10;1.10;;;;;19.10;95654.00;;;;5134637;27;20193;-60
2023/08/25 03:46:18;;;;;;;0.53;0.53;;;;;19.00;95650.00;;;;5134590;27;20209;-60
2023/08/25 03:48:48;;;;;;;0.60;0.60;;;;;19.10;95644.00;;;;5134753;27;20657;-60
2023/08/25 03:51:16;;;;;;;1.37;1.27;;;;;19.00;95634.00;;;;5134760;27;20596;-60
2023/08/25 03:53:43;;;;;;;1.43;1.33;;;;;18.90;95634.00;;;;5134951;27;20561;-60
2023/08/25 03:56:10;;;;;;;0.77;0.77;;;;;19.00;95639.00;;;;5134534;27;20573;-60
2023/08/25 03:58:39;;;;;;;0.60;0.60;;;;;18.90;95637.00;;;;5134385;27;20553;-60
2023/08/25 04:01:06;;;;;;;0.90;0.90;;;;;18.90;95635.00;;;;5133034;27;20556;-60
2023/08/25 04:03:34;;;;;;;0.77;0.77;;;;;18.90;95619.00;;;;5134392;27;20250;-60
2023/08/25 04:06:01;;;;;;;0.90;0.90;;;;;19.00;95619.00;;;;5134023;27;20249;-60
2023/08/25 04:08:29;;;;;;;0.73;0.73;;;;;19.00;95611.00;;;;5134341;27;20189;-61
2023/08/25 04:10:57;;;;;;;0.80;0.80;;;;;18.80;95626.00;;;;5132885;27;20193;-60
2023/08/25 04:13:24;;;;;;;0.47;0.47;;;;;19.00;95621.00;;;;5134196;27;20239;-62
2023/08/25 04:15:56;;;;;;;1.23;1.13;;;;;18.90;95612.00;;;;5134034;27;20200;-60
2023/08/25 04:18:24;;;;;;;1.10;1.00;;;;;18.90;95614.00;;;;5134167;27;20633;-60
2023/08/25 04:20:52;;;;;;;0.63;0.63;;;;;18.90;95616.00;;;;5134259;27;20616;-60
2023/08/25 04:23:19;;;;;;;1.27;0.80;;;;;18.90;95615.00;;;;5134148;27;20186;-60
2023/08/25 04:25:46;;;;;;;0.50;0.50;;;;;18.80;95618.00;;;;5133932;27;20254;-60
2023/08/25 04:28:14;;;;;;;0.63;0.63;;;;;18.70;95621.00;;;;5133918;27;20186;-60
2023/08/25 04:30:41;;;;;;;0.60;0.60;;;;;18.60;95606.00;;;;5134109;27;20574;-60
2023/08/25 04:33:11;;;;;;;0.90;0.90;;;;;18.60;95602.00;;;;5133871;27;20212;-60
2023/08/25 04:35:38;;;;;;;0.87;0.87;;;;;18.70;95587.00;;;;5133761;28;20193;-61
2023/08/25 04:38:05;;;;;;;0.73;0.73;;;;;18.80;95590.00;;;;5134018;28;20550;-60
2023/08/25 04:40:33;;;;;;;1.03;1.03;;;;;18.80;95590.00;;;;5133734;28;20216;-60
2023/08/25 04:43:00;;;;;;;0.87;0.87;;;;;18.90;95592.00;;;;5132454;28;20193;-61
2023/08/25 04:45:27;;;;;;;0.77;0.77;;;;;18.90;95585.00;;;;5133781;28;20197;-60
2023/08/25 04:47:55;;;;;;;1.77;1.67;;;;;19.00;95596.00;;;;5133787;28;20676;-60
2023/08/25 04:50:24;;;;;;;0.80;0.80;;;;;19.00;95583.00;;;;5132577;28;20197;-60
2023/08/25 04:52:51;;;;;;;0.87;0.87;;;;;19.00;95583.00;;;;5134421;28;20193;-60
2023/08/25 04:55:19;;;;;;;1.10;1.10;;;;;19.10;95573.00;;;;5137127;27;20628;-60
2023/08/25 04:57:46;;;;;;;1.27;1.27;;;;;19.10;95575.00;;;;5138147;27;20212;-61
2023/08/25 05:00:14;;;;;;;0.73;0.73;;;;;19.20;95561.00;;;;5137814;27;20672;-60
2023/08/25 05:02:42;;;;;;;0.90;0.90;;;;;19.30;95571.00;;;;5137813;27;20189;-60
2023/08/25 05:05:11;;;;;;;0.70;0.70;;;;;19.30;95578.00;;;;5137569;27;20246;-61
2023/08/25 05:07:41;;;;;;;0.70;0.70;;;;;19.30;95569.00;;;;5137658;27;20206;-60
2023/08/25 05:10:09;;;;;;;0.67;0.67;;;;;19.40;95549.00;;;;5138004;27;20632;-60
2023/08/25 05:12:38;;;;;;;0.87;0.87;;;;;19.30;95547.00;;;;5137653;27;20205;-60
2023/08/25 05:15:07;;;;;;;0.60;0.60;;;;;19.50;95550.00;;;;5137583;27;20217;-60
2023/08/25 05:17:34;;;;;;;1.00;1.00;;;;;19.60;95550.00;;;;5137498;27;20210;-60
2023/08/25 05:20:02;;;;;;;2.93;1.40;;;;;19.50;95543.00;;;;5138133;27;20534;-60
2023/08/25 05:22:30;;;;;;;0.80;0.80;;;;;19.60;95542.00;;;;5136092;27;20237;-60
2023/08/25 05:24:58;;;;;;;1.03;1.03;;;;;19.70;95545.00;;;;5136083;27;20193;-60
2023/08/25 05:27:26;;;;;;;0.60;0.60;;;;;19.60;95572.00;;;;5137521;27;20615;-60
2023/08/25 05:29:53;;;;;;;0.80;0.80;;;;;19.60;95572.00;;;;5136013;27;20197;-60
2023/08/25 05:32:21;;;;;;;0.80;0.80;;;;;19.50;95582.00;;;;5137535;27;20605;-60
2023/08/25 05:34:48;;;;;;;1.63;1.53;;;;;19.50;95596.00;;;;5137146;27;20217;-60
2023/08/25 05:37:15;;;;;;;0.67;0.67;;;;;19.60;95605.00;;;;5136911;27;20205;-60
2023/08/25 05:39:43;;;;;;;0.80;0.80;;;;;19.60;95628.00;;;;5137104;27;20185;-60
2023/08/25 05:42:11;;;;;;;0.33;0.33;;;;;19.60;95642.00;;;;5137098;27;20190;-60
2023/08/25 05:44:39;;;;;;;5.40;0.90;;;;;19.40;95653.00;;;;5136892;27;20644;-60
2023/08/25 05:47:06;;;;;;;1.50;0.90;;;;;19.40;95654.00;;;;5136929;27;20213;-60
2023/08/25 05:49:33;;;;;;;1.33;1.23;;;;;19.50;95657.00;;;;5136918;27;20520;-61
2023/08/25 05:52:01;;;;;;;0.53;0.53;;;;;19.40;95654.00;;;;5136842;27;20242;-60
2023/08/25 05:54:28;;;;;;;2.17;1.30;;;;;19.40;95667.00;;;;5136683;27;20220;-60
2023/08/25 05:56:55;;;;;;;1.30;1.30;;;;;19.40;95694.00;;;;5136794;27;20213;-60
2023/08/25 05:59:24;;;;;;;0.80;0.80;;;;;19.40;95800.00;;;;5136764;27;20239;-60
2023/08/25 06:01:52;;;;;;;1.50;1.43;;;;;18.80;95840.00;;;;5136626;27;20653;-59
2023/08/25 06:04:19;;;;;;;0.70;0.70;;;;;18.70;95868.00;;;;5136583;27;20652;-59
2023/08/25 06:06:47;;;;;;;0.60;0.60;;;;;18.90;95849.00;;;;5135204;27;20236;-60
2023/08/25 06:09:17;;;;;;;1.77;1.63;;;;;19.30;95862.00;;;;5135185;27;20195;-61
2023/08/25 06:11:44;;;;;;;3.13;1.27;;;;;19.40;95880.00;;;;5136315;27;20273;-60
2023/08/25 06:14:12;;;;;;;1.23;0.80;;;;;19.60;95869.00;;;;5136223;27;20304;-60
2023/08/25 06:16:42;;;;;;;0.87;0.87;;;;;19.60;95869.00;;;;5136463;27;20221;-60
2023/08/25 06:19:10;;;;;;;1.00;1.00;;;;;19.70;95844.00;;;;5136279;27;20223;-60
2023/08/25 06:21:37;;;;;;;1.13;1.03;;;;;19.80;95834.00;;;;5136800;27;20522;-60
2023/08/25 06:24:04;;;;;;;1.10;1.07;;;;;19.80;95807.00;;;;5137059;27;20197;-60
2023/08/25 06:26:33;;;;;;;0.70;0.70;;;;;19.70;95841.00;;;;5136779;27;20210;-60
2023/08/25 06:29:00;;;;;;;1.23;1.13;;;;;19.70;95842.00;;;;5136206;27;20262;-60
2023/08/25 06:31:30;;;;;;;1.37;1.27;;;;;19.70;95847.00;;;;5136004;27;20196;-60
2023/08/25 06:33:59;;;;;;;1.20;1.20;;;;;19.60;95855.00;;;;5136306;27;20213;-60
2023/08/25 06:36:26;;;;;;;0.70;0.70;;;;;19.60;95842.00;;;;5136249;27;20214;-60
2023/08/25 06:38:53;;;;;;;0.60;0.60;;;;;19.60;95824.00;;;;5135824;27;20189;-60
2023/08/25 06:41:21;;;;;;;0.90;0.90;;;;;19.50;95854.00;;;;5135877;27;20193;-60
2023/08/25 06:43:48;;;;;;;0.93;0.93;;;;;19.60;95864.00;;;;5135898;27;20528;-60
2023/08/25 06:46:15;;;;;;;0.53;0.53;;;;;19.60;95858.00;;;;5135738;27;20205;-60
2023/08/25 06:48:43;;;;;;;0.63;0.63;;;;;19.60;95845.00;;;;5136067;27;20193;-60
2023/08/25 06:51:11;;;;;;;1.13;1.07;;;;;19.70;95805.00;;;;5135935;27;20705;-60
2023/08/25 06:53:39;;;;;;;1.37;1.27;;;;;19.70;95801.00;;;;5135745;27;20200;-60
2023/08/25 06:56:07;;;;;;;0.60;0.60;;;;;19.70;95808.00;;;;5135639;27;20288;-60
2023/08/25 06:58:36;;;;;;;0.90;0.90;;;;;19.70;95824.00;;;;5135628;27;20192;-60
2023/08/25 07:01:04;;;;;;;0.60;0.60;;;;;19.60;95837.00;;;;5134316;27;20189;-60
2023/08/25 07:03:31;;;;;;;0.90;0.90;;;;;19.60;95833.00;;;;5135447;27;20288;-60
2023/08/25 07:05:59;;;;;;;0.60;0.60;;;;;19.60;95847.00;;;;5135247;27;20221;-61
2023/08/25 07:08:28;;;;;;;0.63;0.63;;;;;19.60;95847.00;;;;5135383;27;20192;-61
2023/08/25 07:10:55;;;;;;;2.60;1.20;;;;;19.60;95897.00;;;;5135821;27;20194;-61
2023/08/25 07:13:22;;;;;;;1.20;1.20;;;;;19.50;95925.00;;;;5135330;27;20228;-61
2023/08/25 07:15:51;;;;;;;0.67;0.67;;;;;19.10;95920.00;;;;5134993;27;20205;-61
2023/08/25 07:18:18;;;;;;;0.83;0.83;;;;;18.80;95941.00;;;;5134553;27;20193;-61
2023/08/25 07:20:46;;;;;;;1.07;0.97;;;;;18.70;95941.00;;;;5135008;27;20189;-60
2023/08/25 07:23:13;;;;;;;0.87;0.87;;;;;18.80;95930.00;;;;5135186;27;20200;-60
2023/08/25 07:25:43;;;;;;;0.83;0.83;;;;;19.10;95924.00;;;;5134902;27;20188;-60
2023/08/25 07:28:11;;;;;;;1.50;1.40;;;;;19.00;95910.00;;;;5135684;27;20652;-60
2023/08/25 07:30:39;;;;;;;0.60;0.60;;;;;19.00;95866.00;;;;5134793;27;20189;-60
2023/08/25 07:33:07;;;;;;;0.43;0.43;;;;;19.10;95891.00;;;;5135042;27;20197;-60
2023/08/25 07:35:35;;;;;;;1.03;1.03;;;;;19.20;95921.00;;;;5134894;27;20209;-60
2023/08/25 07:38:03;;;;;;;0.97;0.97;;;;;19.10;95956.00;;;;5134744;27;20557;-60
2023/08/25 07:40:31;;;;;;;0.83;0.83;;;;;18.90;95966.00;;;;5134890;27;20667;-60
2023/08/25 07:43:02;;;;;;;1.30;1.30;;;;;18.70;95967.00;;;;5134517;27;20217;-60
2023/08/25 07:45:30;;;;;;;0.83;0.83;;;;;18.70;95961.00;;;;5134746;27;20181;-60
2023/08/25 07:47:59;;;;;;;0.93;0.93;;;;;18.90;95957.00;;;;5134329;27;20213;-60
2023/08/25 07:50:27;;;;;;;0.60;0.60;;;;;19.10;95952.00;;;;5134444;27;20190;-60
2023/08/25 07:52:55;;;;;;;1.10;1.10;;;;;19.10;95925.00;;;;5134581;27;20306;-60
2023/08/25 07:55:23;;;;;;;0.77;0.77;;;;;19.10;95932.00;;;;5134367;27;20216;-60
2023/08/25 07:57:50;;;;;;;0.67;0.67;;;;;18.90;95934.00;;;;5134146;27;20205;-60
2023/08/25 08:00:20;;;;;;;0.90;0.90;;;;;19.00;95931.00;;;;5134315;27;20186;-60
2023/08/25 08:02:48;;;;;;;1.00;1.00;;;;;19.00;95931.00;;;;5134658;27;20193;-60
2023/08/25 08:05:17;;;;;;;0.60;0.60;;;;;19.10;95946.00;;;;5134633;27;20193;-60
2023/08/25 08:07:44;;;;;;;0.53;0.53;;;;;19.10;95953.00;;;;5134574;27;20216;-60
2023/08/25 08:10:12;;;;;;;2.20;1.60;;;;;19.00;95939.00;;;;5134531;27;20190;-60
2023/08/25 08:12:42;;;;;;;0.70;0.70;;;;;18.80;95940.00;;;;5134091;27;20185;-60
2023/08/25 08:15:10;;;;;;;0.40;0.40;;;;;18.80;95928.00;;;;5132560;27;20229;-60
2023/08/25 08:17:39;;;;;;;0.90;0.90;;;;;19.00;95919.00;;;;5134060;27;20228;-60
2023/08/25 08:20:12;;;;;;;0.47;0.47;;;;;19.00;95911.00;;;;5134107;27;20189;-60
2023/08/25 08:22:40;;;;;;;1.00;1.00;;;;;18.80;95900.00;;;;5133988;27;20209;-60
2023/08/25 08:25:10;;;;;;;1.10;1.10;;;;;18.90;95880.00;;;;5134739;27;20181;-60
2023/08/25 08:27:39;;;;;;;1.53;1.43;;;;;18.90;95835.00;;;;5134238;27;20308;-59
2023/08/25 08:30:07;;;;;;;0.60;0.60;;;;;19.00;95802.00;;;;5133457;27;20277;-59
2023/08/25 08:32:38;;;;;;;2.20;1.23;;;;;18.90;95794.00;;;;5133851;27;20186;-59
2023/08/25 08:35:07;;;;;;;0.73;0.73;;;;;18.90;95787.00;;;;5133765;27;20685;-60
2023/08/25 08:37:35;;;;;;;1.27;0.80;;;;;18.90;95756.00;;;;5133688;28;20213;-60
2023/08/25 08:40:04;;;;;;;1.00;1.00;;;;;19.00;95750.00;;;;5134019;28;20212;-60
2023/08/25 08:42:34;;;;;;;0.67;0.67;;;;;19.10;95728.00;;;;5133873;28;20188;-61
2023/08/25 08:45:04;;;;;;;1.03;1.03;;;;;19.20;95706.00;;;;5134051;28;20182;-60
2023/08/25 08:47:32;;;;;;;1.60;1.40;;;;;19.20;95729.00;;;;5134078;28;20212;-60
2023/08/25 08:50:02;;;;;;;0.93;0.93;;;;;19.30;95745.00;;;;5133866;28;20276;-61
2023/08/25 08:52:31;;;;;;;0.60;0.60;;;;;19.40;95781.00;;;;5133961;28;20205;-60
2023/08/25 08:54:59;;;;;;;0.70;0.70;;;;;19.40;95789.00;;;;5133522;28;20237;-60
2023/08/25 08:57:28;;;;;;;1.93;1.33;;;;;19.20;95778.00;;;;5133633;28;20236;-60
2023/08/25 08:59:58;;;;;;;0.87;0.87;;;;;19.30;95764.00;;;;5133581;28;20196;-60
2023/08/25 09:02:28;;;;;;;1.03;1.03;;;;;19.20;95747.00;;;;5133804;28;20289;-60
2023/08/25 09:05:00;;;;;;;0.97;0.97;;;;;19.30;95737.00;;;;5133941;28;20215;-60
2023/08/25 09:07:31;;;;;;;0.80;0.80;;;;;19.30;95746.00;;;;5133808;28;20213;-60
2023/08/25 09:10:00;;;;;;;0.77;0.77;;;;;19.30;95732.00;;;;5133876;28;20522;-60
2023/08/25 09:12:29;;;;;;;0.40;0.40;;;;;19.40;95739.00;;;;5133429;28;20189;-60
2023/08/25 09:14:57;;;;;;;0.70;0.70;;;;;19.40;95715.00;;;;5133643;28;20215;-60
2023/08/25 09:17:24;;;;;;;2.27;1.17;;;;;19.60;95702.00;;;;5133391;28;20688;-62
2023/08/25 09:19:53;;;;;;;0.57;0.57;;;;;19.80;95703.00;;;;5133407;28;20193;-60
2023/08/25 09:22:21;;;;;;;0.83;0.83;;;;;19.70;95723.00;;;;5133739;28;20196;-61
2023/08/25 09:24:49;;;;;;;0.80;0.80;;;;;19.60;95711.00;;;;5133723;28;20622;-61
2023/08/25 09:27:24;;;;;;;0.87;0.87;;;;;19.60;95725.00;;;;5133722;28;20209;-60
2023/08/25 09:30:00;;;;;;;1.03;0.90;;;;;19.60;95729.00;;;;5133277;28;20732;-61
2023/08/25 09:32:28;;;;;;;0.73;0.73;;;;;19.70;95711.00;;;;5132232;28;20272;-60
2023/08/25 09:34:56;;;;;;;0.83;0.83;;;;;19.50;95724.00;;;;5133257;28;20217;-60
2023/08/25 09:37:40;;;;;;;0.93;0.93;;;;;19.70;95736.00;;;;5133249;28;20210;-60
2023/08/25 09:40:11;;;;;;;1.33;1.23;;;;;19.60;95746.00;;;;5135033;27;20204;-60
2023/08/25 09:42:38;;;;;;;0.93;0.93;;;;;19.50;95746.00;;;;5137540;27;20693;-60
2023/08/25 09:45:07;;;;;;;1.53;1.40;;;;;19.70;95730.00;;;;5136993;27;20523;-60
2023/08/25 09:47:35;;;;;;;0.77;0.77;;;;;19.90;95747.00;;;;5137325;27;20236;-60
2023/08/25 09:50:02;;;;;;;0.50;0.50;;;;;20.10;95753.00;;;;5137580;27;20229;-60
2023/08/25 09:52:37;;;;;;;0.67;0.67;;;;;20.00;95755.00;;;;5137046;27;20234;-60
2023/08/25 09:55:06;;;;;;;1.07;1.07;;;;;20.00;95759.00;;;;5136888;27;20201;-60
2023/08/25 09:57:34;;;;;;;1.80;1.67;;;;;20.00;95758.00;;;;5136872;27;20205;-60
2023/08/25 10:00:04;;;;;;;2.40;1.23;;;;;20.10;95756.00;;;;5136873;27;20196;-60
2023/08/25 10:02:32;;;;;;;0.50;0.50;;;;;20.00;95755.00;;;;5136744;27;20193;-60
2023/08/25 10:05:01;;;;;;;1.23;0.73;;;;;20.20;95750.00;;;;5136738;27;20197;-60
2023/08/25 10:07:30;;;;;;;0.93;0.93;;;;;20.30;95732.00;;;;5136534;27;20228;-60
2023/08/25 10:09:57;;;;;;;0.80;0.80;;;;;20.30;95732.00;;;;5136851;27;20189;-59
2023/08/25 10:12:26;;;;;;;0.70;0.70;;;;;20.40;95726.00;;;;5137197;27;20185;-60
2023/08/25 10:14:56;;;;;;;0.77;0.77;;;;;20.50;95726.00;;;;5136932;27;20213;-60
2023/08/25 10:17:25;;;;;;;2.17;1.47;;;;;20.50;95744.00;;;;5136691;27;20240;-60
2023/08/25 10:19:58;;;;;;;0.90;0.90;;;;;20.30;95747.00;;;;5136271;27;20181;-60
2023/08/25 10:22:27;;;;;;;2.07;1.40;;;;;20.50;95742.00;;;;5136324;27;20193;-60
2023/08/25 10:25:00;;;;;;;0.73;0.73;;;;;20.80;95760.00;;;;5136865;27;20242;-61
2023/08/25 10:27:29;;;;;;;1.00;1.00;;;;;20.80;95762.00;;;;5136316;27;20209;-60
2023/08/25 10:29:57;;;;;;;1.00;1.00;;;;;20.20;95766.00;;;;5136055;27;20192;-60
2023/08/25 10:32:24;;;;;;;0.87;0.87;;;;;20.30;95770.00;;;;5136278;27;20201;-60
2023/08/25 10:34:53;;;;;;;1.17;1.17;;;;;20.10;95764.00;;;;5136401;27;20276;-59
2023/08/25 10:37:26;;;;;;;1.00;1.00;;;;;20.20;95765.00;;;;5136153;27;20258;-60
2023/08/25 10:39:57;;;;;;;0.50;0.50;;;;;20.10;95758.00;;;;5136096;27;20228;-59
2023/08/25 10:42:26;;;;;;;0.60;0.60;;;;;20.20;95743.00;;;;5136253;27;20613;-58
2023/08/25 10:44:55;;;;;;;1.50;1.13;;;;;20.40;95748.00;;;;5136057;27;20189;-58
2023/08/25 10:47:23;;;;;;;1.40;1.30;;;;;20.40;95754.00;;;;5136171;27;20236;-58
2023/08/25 10:49:54;;;;;;;1.00;1.00;;;;;20.40;95749.00;;;;5135948;27;20192;-58
2023/08/25 10:52:22;;;;;;;1.50;1.00;;;;;20.20;95742.00;;;;5135136;27;20625;-58
2023/08/25 10:54:52;;;;;;;1.47;1.37;;;;;20.40;95747.00;;;;5135872;27;20189;-58
2023/08/25 10:57:41;;;;;;;1.57;1.13;;;;;20.50;95747.00;;;;5134810;27;20680;-59
2023/08/25 11:00:29;;;;;;;0.50;0.50;;;;;20.40;95720.00;;;;5136251;27;20178;-59
2023/08/25 11:02:57;;;;;;;1.00;1.00;;;;;20.60;95723.00;;;;5135791;27;20224;-59
2023/08/25 11:05:44;;;;;;;0.87;0.87;;;;;20.60;95760.00;;;;5135442;27;20196;-59
2023/08/25 11:08:28;;;;;;;1.87;1.13;;;;;20.50;95737.00;;;;5135818;27;20211;-59
2023/08/25 11:11:13;;;;;;;0.77;0.77;;;;;21.00;95731.00;;;;5134008;27;20169;-60
2023/08/25 11:13:43;;;;;;;1.77;1.50;;;;;21.50;95719.00;;;;5135241;27;20201;-60
2023/08/25 11:16:12;;;;;;;1.30;1.30;;;;;21.60;95722.00;;;;5135357;27;20214;-60
2023/08/25 11:18:43;;;;;;;1.53;1.43;;;;;21.50;95745.00;;;;5135332;27;20671;-60
2023/08/25 11:21:11;;;;;;;0.60;0.60;;;;;21.60;95773.00;;;;5135197;27;20544;-60
2023/08/25 11:23:40;;;;;;;3.80;1.38;;;;;21.30;95753.00;;;;5135085;27;20265;-59
2023/08/25 11:26:08;;;;;;;3.90;1.07;;;;;21.40;95745.00;;;;5135153;27;20201;-59
2023/08/25 11:28:36;;;;;;;1.37;1.27;;;;;21.40;95740.00;;;;5135552;27;20217;-60
2023/08/25 11:31:05;;;;;;;0.60;0.60;;;;;21.50;95746.00;;;;5135026;27;20193;-59
2023/08/25 11:33:33;;;;;;;1.10;1.10;;;;;21.70;95739.00;;;;5135154;27;20297;-59
2023/08/25 11:36:02;;;;;;;0.70;0.70;;;;;21.70;95732.00;;;;5134870;27;20225;-60
2023/08/25 11:38:31;;;;;;;1.00;1.00;;;;;21.90;95739.00;;;;5133491;27;20281;-60
2023/08/25 11:40:58;;;;;;;4.72;1.40;;;;;21.90;95742.00;;;;5134781;27;20197;-60
2023/08/25 11:43:32;;;;;;;0.80;0.80;;;;;21.90;95698.00;;;;5134770;27;20192;-59
2023/08/25 11:46:00;;;;;;;0.70;0.70;;;;;21.80;95680.00;;;;5134565;27;20684;-59
2023/08/25 11:48:29;;;;;;;0.93;0.93;;;;;21.70;95686.00;;;;5134640;27;20193;-60
2023/08/25 11:50:56;;;;;;;1.10;1.10;;;;;21.80;95695.00;;;;5134631;27;20189;-60
2023/08/25 11:53:23;;;;;;;0.98;0.95;;;;;22.00;95673.00;;;;5134516;27;20204;-60
2023/08/25 11:56:05;;;;;;;0.70;0.70;;;;;21.60;95701.00;;;;5134432;27;20696;-61
2023/08/25 11:58:33;;;;;;;0.52;0.52;;;;;21.70;95678.00;;;;5135616;27;20185;-60
2023/08/25 12:01:04;;;;;;;0.93;0.93;;;;;21.60;95674.00;;;;5135712;27;20185;-60
2023/08/25 12:03:33;;;;;;;2.13;1.42;;;;;21.80;95685.00;;;;5134505;27;20178;-60
2023/08/25 12:06:06;;;;;;;1.33;1.27;;;;;21.60;95667.00;;;;5134478;27;20237;-60
2023/08/25 12:08:33;;;;;;;0.65;0.65;;;;;21.50;95676.00;;;;5134448;27;20203;-61
2023/08/25 12:11:01;;;;;;;1.80;1.58;;;;;21.60;95711.00;;;;5134514;27;20193;-61
2023/08/25 12:13:31;;;;;;;1.13;1.05;;;;;21.60;95646.00;;;;5134876;27;20224;-61
2023/08/25 12:15:59;;;;;;;0.80;0.80;;;;;21.80;95643.00;;;;5134331;27;20336;-61
2023/08/25 12:18:35;;;;;;;0.90;0.90;;;;;22.10;95629.00;;;;5133071;27;20185;-61
2023/08/25 12:21:04;;;;;;;0.95;0.95;;;;;22.20;95612.00;;;;5133100;27;20193;-61
2023/08/25 12:23:36;;;;;;;0.82;0.82;;;;;22.30;95575.00;;;;5134622;27;20193;-61
2023/08/25 12:26:04;;;;;;;1.00;0.98;;;;;22.60;95556.00;;;;5134321;27;20201;-62